Home > Products > Valid Products > TAF

000
FTUS42 KCAE 261100 AAA
TAFCAE
TAF AMD
KCAE 261130Z 2612/2706 00000KT 5SM BR SCT002 SCT250
      TEMPO 2612/2613 1/2SM FG VV002
     FM261300 VRB03KT P6SM SCT250=



000
FTUS42 KCAE 261100 AAA
TAFCAE
TAF AMD
KCAE 261102Z 2611/2706 00000KT 5SM BR SCT002 SCT250
      TEMPO 2611/2613 BKN002
     FM261300 VRB03KT P6SM SCT250=



000
FTUS42 KCAE 260900 AAB
TAFCUB
TAF AMD
KCUB 260955Z 2610/2706 00000KT 2SM BR SCT002 SCT250
      TEMPO 2610/2613 1SM BR VV001
     FM261400 VRB03KT P6SM SCT250=



000
FTUS42 KCAE 260800 AAA
TAFDNL
TAF AMD
KDNL 260832Z 2609/2706 VRB03KT P6SM SKC=



000
FTUS42 KCAE 260800 AAA
TAFAGS
TAF AMD
KAGS 260832Z 2609/2706 00000KT P6SM SCT004 SCT250
      TEMPO 2609/2613 2SM BR BKN004
     FM261300 VRB03KT P6SM SCT250=



000
FTUS42 KCAE 260800 AAA
TAFOGB
TAF AMD
KOGB 260832Z 2609/2706 VRB03KT 5SM BR SCT250
      TEMPO 2609/2613 2SM BR
     FM261300 VRB03KT P6SM SCT250=



000
FTUS42 KCAE 260800 AAA
TAFCAE
TAF AMD
KCAE 260832Z 2609/2706 VRB03KT P6SM SCT250=



000
FTUS42 KCAE 260800 AAA
TAFCUB
TAF AMD
KCUB 260832Z 2609/2706 00000KT 4SM BR SCT250
     FM261300 VRB03KT P6SM SCT250=



000
FTUS42 KCAE 260500
TAFOGB
TAF
KOGB 260533Z 2606/2706 VRB03KT 5SM BR SCT250
      TEMPO 2607/2611 2SM BR=



000
FTUS42 KCAE 260500
TAFAGS
TAF
KAGS 260533Z 2606/2706 VRB03KT P6SM SCT250
      TEMPO 2608/2612 4SM BR=



000
FTUS42 KCAE 260500
TAFCUB
TAF
KCUB 260533Z 2606/2706 VRB03KT P6SM SCT250
      TEMPO 2608/2612 5SM BR=



000
FTUS42 KCAE 260500
TAFDNL
TAF
KDNL 260533Z 2606/2706 VRB03KT P6SM SKC=



000
FTUS42 KCAE 260500
TAFCAE
TAF
KCAE 260533Z 2606/2706 VRB03KT P6SM SCT250=



000
FTUS42 KCAE 260200 AAA
TAFDNL
TAF AMD
KDNL 260234Z 2603/2624 VRB03KT P6SM SKC=



000
FTUS42 KCAE 260200 AAA
TAFOGB
TAF AMD
KOGB 260234Z 2603/2624 VRB03KT P6SM SKC=



000
FTUS42 KCAE 260200 AAA
TAFCUB
TAF AMD
KCUB 260234Z 2603/2624 VRB03KT P6SM SKC=



000
FTUS42 KCAE 260200 AAA
TAFCAE
TAF AMD
KCAE 260234Z 2603/2624 VRB03KT P6SM SKC=



000
FTUS42 KCAE 260200 AAA
TAFAGS
TAF AMD
KAGS 260234Z 2603/2624 VRB03KT P6SM SKC=



000
FTUS42 KCAE 252300
TAFAGS
TAF
KAGS 252320Z 2600/2624 VRB03KT P6SM SKC=



000
FTUS42 KCAE 252300
TAFOGB
TAF
KOGB 252320Z 2600/2624 VRB03KT P6SM SKC=



000
FTUS42 KCAE 252300
TAFCUB
TAF
KCUB 252320Z 2600/2624 VRB03KT P6SM SKC=



000
FTUS42 KCAE 252300
TAFCAE
TAF
KCAE 252320Z 2600/2624 VRB03KT P6SM SKC=



000
FTUS42 KCAE 252300
TAFDNL
TAF
KDNL 252320Z 2600/2624 VRB03KT P6SM SKC=



000
FTUS42 KCAE 252100 AAA
TAFAGS
TAF AMD
KAGS 252109Z 2521/2618 30010KT P6SM SKC
     FM252300 VRB03KT P6SM SKC=



000
FTUS42 KCAE 252100 AAA
TAFOGB
TAF AMD
KOGB 252109Z 2521/2618 30010KT P6SM SKC
     FM252300 VRB03KT P6SM SKC=



000
FTUS42 KCAE 252100 AAA
TAFCUB
TAF AMD
KCUB 252109Z 2521/2618 28008KT P6SM SKC
     FM252300 VRB03KT P6SM SKC=



000
FTUS42 KCAE 252100 AAA
TAFCAE
TAF AMD
KCAE 252109Z 2521/2618 28008KT P6SM SKC
     FM252300 VRB03KT P6SM SKC=



000
FTUS42 KCAE 252100 AAA
TAFDNL
TAF AMD
KDNL 252109Z 2521/2618 30010KT P6SM SKC
     FM252300 VRB03KT P6SM SKC=



000
FTUS42 KCAE 251700
TAFDNL
TAF
KDNL 251728Z 2518/2618 30010KT P6SM SKC
     FM252300 VRB03KT P6SM SKC=



000
FTUS42 KCAE 251700
TAFCUB
TAF
KCUB 251728Z 2518/2618 28008KT P6SM SKC
     FM252300 VRB03KT P6SM SKC=



000
FTUS42 KCAE 251700
TAFCAE
TAF
KCAE 251728Z 2518/2618 28008KT P6SM SKC
     FM252300 VRB03KT P6SM SKC=



000
FTUS42 KCAE 251700
TAFOGB
TAF
KOGB 251728Z 2518/2618 30010KT P6SM SKC
     FM252300 VRB03KT P6SM SKC=



000
FTUS42 KCAE 251700
TAFAGS
TAF
KAGS 251728Z 2518/2618 30010KT P6SM SKC
     FM252300 VRB03KT P6SM SKC=



000
FTUS42 KCAE 251600 AAA
TAFOGB
TAF AMD
KOGB 251605Z 2516/2612 28011G17KT P6SM SCT250
     FM252100 28008KT P6SM SKC
     FM260000 VRB03KT P6SM SKC=



000
FTUS42 KCAE 251400 AAA
TAFCUB
TAF AMD
KCUB 251422Z 2514/2612 28010G18KT P6SM SCT250
     FM252100 28008KT P6SM SKC
     FM252300 00000KT P6SM SKC=



000
FTUS42 KCAE 251400 AAA
TAFCAE
TAF AMD
KCAE 251422Z 2514/2612 28010G18KT P6SM SCT250
     FM252100 28008KT P6SM SKC
     FM252300 VRB03KT P6SM SKC=



000
FTUS42 KCAE 251300 AAA
TAFDNL
TAF AMD
KDNL 251353Z 2514/2612 28010G17KT P6SM SCT250
     FM252100 28008KT P6SM SKC
     FM260000 VRB04KT P6SM SKC=



000
FTUS42 KCAE 251300 AAA
TAFAGS
TAF AMD
KAGS 251353Z 2514/2612 28010G17KT P6SM SCT250
     FM252100 28008KT P6SM SKC
     FM260000 VRB03KT P6SM SKC=



000
FTUS42 KCAE 251100
TAFDNL
TAF
KDNL 251137Z 2512/2612 29012G20KT P6SM BKN120 OVC250
     FM251400 28010G17KT P6SM FEW200
     FM252100 28008KT P6SM SKC
     FM260000 VRB04KT P6SM SKC=



000
FTUS42 KCAE 251100
TAFAGS
TAF
KAGS 251137Z 2512/2612 29014G22KT P6SM BKN120 OVC250
     FM251400 28010G17KT P6SM FEW200
     FM252100 28008KT P6SM SKC
     FM260000 VRB03KT P6SM SKC=



000
FTUS42 KCAE 251100
TAFOGB
TAF
KOGB 251137Z 2512/2612 27012G18KT P6SM BKN120 OVC250
     FM251600 28011G17KT P6SM FEW200
     FM252100 28008KT P6SM SKC
     FM260000 VRB03KT P6SM SKC=



000
FTUS42 KCAE 251100
TAFCAE
TAF
KCAE 251137Z 2512/2612 27012G17KT P6SM BKN120 OVC250
     FM251500 28010G18KT P6SM FEW200
     FM252100 28008KT P6SM SKC
     FM252300 VRB03KT P6SM SKC=



000
FTUS42 KCAE 251100
TAFCUB
TAF
KCUB 251137Z 2512/2612 27010G16KT P6SM BKN120 OVC250
     FM251500 28010G18KT P6SM FEW200
     FM252100 28008KT P6SM SKC
     FM252300 00000KT P6SM SKC=



000
FTUS42 KCAE 251000 AAA
TAFDNL
TAF AMD
KDNL 251039Z 2511/2606 29012G20KT P6SM BKN120 OVC250
     FM251400 28010G17KT P6SM FEW200
     FM252100 28008KT P6SM SKC
     FM260000 VRB04KT P6SM SKC=



000
FTUS42 KCAE 251000 AAA
TAFOGB
TAF AMD
KOGB 251039Z 2511/2606 27012G18KT P6SM BKN120 OVC250
     FM251400 28011G17KT P6SM FEW200
     FM252100 28008KT P6SM SKC
     FM260000 VRB03KT P6SM SKC=



000
FTUS42 KCAE 251000 AAA
TAFCUB
TAF AMD
KCUB 251039Z 2511/2606 27010G15KT P6SM BKN120 OVC250
     FM251400 28010G18KT P6SM FEW200
     FM252100 28008KT P6SM SKC
     FM252300 00000KT P6SM SKC=



000
FTUS42 KCAE 251000 AAA
TAFAGS
TAF AMD
KAGS 251039Z 2511/2606 29014G22KT P6SM BKN120 OVC250
     FM251400 28010G17KT P6SM FEW200
     FM252100 28008KT P6SM SKC
     FM260000 VRB03KT P6SM SKC=



000
FTUS42 KCAE 251000 AAA
TAFCAE
TAF AMD
KCAE 251039Z 2511/2606 27012G17KT P6SM BKN120 OVC250
     FM251400 28010G18KT P6SM FEW200
     FM252100 28008KT P6SM SKC
     FM252300 VRB03KT P6SM SKC=



000
FTUS42 KCAE 250500 RRA
TAFOGB
TAF
KOGB 250546Z 2506/2606 28012G20KT P6SM SCT020 BKN040 OVC100
      TEMPO 2506/2510 -SHRA
     FM251000 27012G20KT P6SM BKN100 OVC250
     FM251400 28011G17KT P6SM FEW200
     FM252100 28008KT P6SM SKC
     FM260000 VRB03KT P6SM SKC=



000
FTUS42 KCAE 250500 RRA
TAFCUB
TAF
KCUB 250546Z 2506/2606 28012G18KT P6SM SCT020 BKN045 OVC100
      TEMPO 2506/2509 -SHRA
     FM250900 27012G17KT P6SM BKN100 OVC250
     FM251400 28010G18KT P6SM FEW200
     FM252100 28008KT P6SM SKC
     FM252300 00000KT P6SM SKC=



000
FTUS42 KCAE 250500 RRA
TAFAGS
TAF
KAGS 250546Z 2506/2606 29014G22KT P6SM SCT025 OVC100
      TEMPO 2506/2508 -SHRA
     FM251400 28010G17KT P6SM FEW200
     FM252100 28008KT P6SM SKC
     FM260000 VRB03KT P6SM SKC=



000
FTUS42 KCAE 250500 RRA
TAFCAE
TAF
KCAE 250546Z 2506/2606 28014G22KT P6SM SCT025 BKN045 OVC100
      TEMPO 2506/2509 -SHRA
     FM250900 27012G17KT P6SM BKN100 OVC250
     FM251400 28010G18KT P6SM FEW200
     FM252100 28008KT P6SM SKC
     FM252300 VRB03KT P6SM SKC=



000
FTUS42 KCAE 250500 RRA
TAFDNL
TAF
KDNL 250546Z 2506/2606 29012G20KT P6SM BKN100 OVC250
      TEMPO 2506/2509 -SHRA
     FM251400 28010G17KT P6SM FEW200
     FM252100 28008KT P6SM SKC
     FM260000 VRB04KT P6SM SKC=



000
FTUS42 KCAE 250300 AAA
TAFCAE
TAF AMD
KCAE 250356Z 2504/2524 22012G21KT P6SM VCSH SCT014 BKN045 OVC100
      TEMPO 2504/2505 5SM -RA BR BKN013 OVC020
     FM250500 22011G17KT P6SM SCT020 BKN045 OVC100
     FM250700 26012G17KT P6SM BKN100 OVC250
     FM251400 28010G18KT P6SM FEW200
     FM252100 28008KT P6SM SKC=



000
FTUS42 KCAE 250300 AAC
TAFCUB
TAF AMD
KCUB 250356Z 2504/2524 22012G20KT P6SM VCSH SCT014 BKN045 OVC100
      TEMPO 2504/2505 5SM -RA BR BKN013 OVC020
     FM250500 22011G17KT P6SM SCT020 BKN045 OVC100
     FM250700 26012G17KT P6SM BKN100 OVC250
     FM251400 28010G18KT P6SM FEW200
     FM252100 28008KT P6SM SKC=



000
FTUS42 KCAE 250300 AAB
TAFDNL
TAF AMD
KDNL 250328Z 2503/2524 22011G18KT P6SM SCT025 BKN045 OVC100
      TEMPO 2503/2504 6SM -RA BR BKN021 OVC035
     FM250600 25012G18KT P6SM BKN100 OVC250
     FM251400 28010G17KT P6SM FEW200
     FM252100 28008KT P6SM SKC=



000
FTUS42 KCAE 250300 AAB
TAFCAE
TAF AMD
KCAE 250328Z 2503/2524 22009KT P6SM VCSH SCT014 BKN045 OVC100
      TEMPO 2503/2505 5SM -RA BR BKN013 OVC020
     FM250500 22011G17KT P6SM SCT020 BKN045 OVC100
     FM250700 26012G17KT P6SM BKN100 OVC250
     FM251400 28010G18KT P6SM FEW200
     FM252100 28008KT P6SM SKC=



000
FTUS42 KCAE 250300 AAB
TAFOGB
TAF AMD
KOGB 250328Z 2503/2524 19011KT P6SM VCSH SCT010 BKN025 OVC100
      TEMPO 2503/2506 6SM -RA BR BKN009 BKN015 OVC020
     FM250600 22011G17KT P6SM SCT020 BKN040 OVC100
     FM250900 26012G20KT P6SM BKN100 OVC250
     FM251400 28011G17KT P6SM FEW200
     FM252100 28008KT P6SM SKC=



000
FTUS42 KCAE 250300 AAB
TAFAGS
TAF AMD
KAGS 250328Z 2503/2524 22011G18KT P6SM SCT025 BKN045 OVC100
      TEMPO 2503/2504 6SM -RA BR BKN021 OVC035
     FM250600 25012G18KT P6SM BKN100 OVC250
     FM251400 28010G17KT P6SM FEW200
     FM252100 28008KT P6SM SKC=



000
FTUS42 KCAE 250300 AAB
TAFCUB
TAF AMD
KCUB 250328Z 2503/2524 22008KT P6SM VCSH SCT014 BKN045 OVC100
      TEMPO 2503/2505 5SM -RA BR BKN013 OVC020
     FM250500 22011G17KT P6SM SCT020 BKN045 OVC100
     FM250700 26012G17KT P6SM BKN100 OVC250
     FM251400 28010G18KT P6SM FEW200
     FM252100 28008KT P6SM SKC=



000
FTUS42 KCAE 250200 AAA
TAFDNL
TAF AMD
KDNL 250204Z 2502/2524 22011G18KT P6SM SCT025 BKN045 OVC100
      TEMPO 2502/2504 6SM -RA BR BKN021 OVC035
     FM250600 25012G18KT P6SM BKN100 OVC250
     FM251400 28010G17KT P6SM FEW200
     FM252100 28008KT P6SM SKC=



000
FTUS42 KCAE 250200 AAA
TAFOGB
TAF AMD
KOGB 250204Z 2502/2524 19011KT P6SM VCSH SCT010 BKN025 OVC100
      TEMPO 2502/2504 6SM -RA BR BKN006 BKN010 OVC020
     FM250500 22011G17KT P6SM SCT020 BKN040 OVC100
     FM250900 26012G20KT P6SM BKN100 OVC250
     FM251400 28011G17KT P6SM FEW200
     FM252100 28008KT P6SM SKC=



000
FTUS42 KCAE 250200 AAA
TAFCAE
TAF AMD
KCAE 250204Z 2502/2524 19010KT P6SM VCSH SCT014 BKN021 OVC100
      TEMPO 2502/2504 5SM -RA BR BKN013 OVC020
     FM250400 22011G17KT P6SM SCT020 BKN040 OVC100
     FM250600 26012G17KT P6SM BKN100 OVC250
     FM251400 28010G18KT P6SM FEW200
     FM252100 28008KT P6SM SKC=



000
FTUS42 KCAE 250200 AAA
TAFAGS
TAF AMD
KAGS 250204Z 2502/2524 22011G18KT P6SM SCT025 BKN045 OVC100
      TEMPO 2502/2504 6SM -RA BR BKN021 OVC035
     FM250600 25012G18KT P6SM BKN100 OVC250
     FM251400 28010G17KT P6SM FEW200
     FM252100 28008KT P6SM SKC=



000
FTUS42 KCAE 250200 AAA
TAFCUB
TAF AMD
KCUB 250204Z 2502/2524 19009KT P6SM VCSH SCT014 BKN021 OVC100
      TEMPO 2502/2504 5SM -RA BR BKN013 OVC020
     FM250400 22011G17KT P6SM SCT020 BKN040 OVC100
     FM250700 26012G17KT P6SM BKN100 OVC250
     FM251400 28010G18KT P6SM FEW200
     FM252100 28008KT P6SM SKC=



000
FTUS42 KCAE 242300
TAFCAE
TAF
KCAE 242338Z 2500/2524 19010KT P6SM VCSH SCT010 BKN020 OVC100
      TEMPO 2500/2502 6SM -DZ BR BKN010 OVC020
     FM250300 22011G17KT P6SM SCT020 BKN040 OVC100
     FM250600 26012G17KT P6SM BKN100 OVC250
     FM251400 28010G18KT P6SM FEW200
     FM252100 28008KT P6SM SKC=



000
FTUS42 KCAE 242300
TAFCUB
TAF
KCUB 242338Z 2500/2524 19009KT P6SM VCSH SCT010 BKN020 OVC100
      TEMPO 2500/2502 6SM -DZ BR BKN010 OVC020
     FM250300 22011G17KT P6SM SCT020 BKN040 OVC100
     FM250600 26012G17KT P6SM BKN100 OVC250
     FM251400 28010G18KT P6SM FEW200
     FM252100 28008KT P6SM SKC=



000
FTUS42 KCAE 242300
TAFOGB
TAF
KOGB 242338Z 2500/2524 19011KT P6SM VCSH SCT010 BKN025 OVC100
      TEMPO 2500/2503 6SM -DZ BR BKN006 BKN010 OVC020
     FM250300 22011G17KT P6SM SCT020 BKN040 OVC100
     FM250700 26012G20KT P6SM BKN100 OVC250
     FM251400 28011G17KT P6SM FEW200
     FM252100 28008KT P6SM SKC=



000
FTUS42 KCAE 242300
TAFDNL
TAF
KDNL 242338Z 2500/2524 20009KT P6SM VCSH SCT008 BKN013 OVC025
      TEMPO 2500/2502 6SM -DZ BR BKN008 OVC013
     FM250200 22011G20KT P6SM SCT020 BKN040 OVC100
     FM250600 25012G18KT P6SM BKN100 OVC250
     FM251400 28010G17KT P6SM FEW200
     FM252100 28008KT P6SM SKC=



000
FTUS42 KCAE 242300
TAFAGS
TAF
KAGS 242338Z 2500/2524 20008KT P6SM VCSH SCT012 BKN022 OVC040
      TEMPO 2500/2502 6SM -DZ BR BKN010 OVC020
     FM250200 22011G20KT P6SM SCT020 BKN040 OVC100
     FM250600 25012G18KT P6SM BKN100 OVC250
     FM251400 28010G17KT P6SM FEW200
     FM252100 28008KT P6SM SKC=



000
FTUS42 KCAE 242100 AAB
TAFCAE
TAF AMD
KCAE 242127Z 2421/2518 19010G20KT P6SM VCSH SCT013 BKN020 OVC100
      TEMPO 2421/2501 6SM -RA BR SCT006 BKN013 OVC040
     FM250200 22011G17KT P6SM SCT020 BKN040 OVC100
     FM250700 26012G17KT P6SM BKN100 OVC250
     FM251400 28010G18KT P6SM FEW200=



000
FTUS42 KCAE 242100 AAB
TAFAGS
TAF AMD
KAGS 242127Z 2421/2518 20008KT P6SM VCSH SCT015 BKN025 OVC040
      TEMPO 2421/2424 6SM -RA BR BKN015 OVC025
     FM250000 22011G20KT P6SM SCT020 BKN040 OVC100
     FM250600 25012G18KT P6SM BKN100 OVC250
     FM251400 28010G17KT P6SM FEW200=



000
FTUS42 KCAE 242100 AAB
TAFOGB
TAF AMD
KOGB 242127Z 2421/2518 19011G18KT P6SM VCSH SCT010 OVC100
      TEMPO 2422/2501 6SM -RA BR SCT006 BKN010 OVC040
     FM250300 22011G17KT P6SM SCT020 BKN040 OVC100
     FM250700 26012G20KT P6SM BKN100 OVC250
     FM251400 28011G17KT P6SM FEW200=



000
FTUS42 KCAE 242100 AAB
TAFCUB
TAF AMD
KCUB 242127Z 2421/2518 19009KT P6SM VCSH SCT013 BKN020 OVC100
      TEMPO 2421/2501 6SM -RA BR SCT006 BKN013 OVC040
     FM250200 22011G17KT P6SM SCT020 BKN040 OVC100
     FM250700 26012G17KT P6SM BKN100 OVC250
     FM251400 28010G18KT P6SM FEW200=



000
FTUS42 KCAE 242100 AAB
TAFDNL
TAF AMD
KDNL 242127Z 2421/2518 20009KT P6SM VCSH SCT009 BKN015 OVC025
      TEMPO 2421/2423 6SM -RA BR BKN009 OVC015
     FM250000 22011G20KT P6SM SCT020 BKN040 OVC100
     FM250600 25012G18KT P6SM BKN100 OVC250
     FM251400 28010G17KT P6SM FEW200=



000
FTUS42 KCAE 241900 AAA
TAFDNL
TAF AMD
KDNL 241929Z 2419/2518 20010G20KT P6SM VCSH SCT008 OVC015
      TEMPO 2419/2423 4SM -SHRA BR BKN007
     FM250000 26012G20KT P6SM BKN040 OVC100
     FM250600 28012G18KT P6SM BKN100 OVC250
     FM251400 28010KT P6SM FEW200=



000
FTUS42 KCAE 241900 AAA
TAFAGS
TAF AMD
KAGS 241928Z 2419/2518 20010G20KT P6SM VCSH SCT008 OVC015
      TEMPO 2419/2423 4SM -SHRA BR BKN007
     FM250000 26012G20KT P6SM BKN040 OVC100
     FM250600 28012G18KT P6SM BKN100 OVC250
     FM251400 28010KT P6SM FEW200=



000
FTUS42 KCAE 241900 AAA
TAFOGB
TAF AMD
KOGB 241926Z 2419/2518 19010G20KT 4SM -SHRA BR BKN009 OVC100
     FM242100 19014G22KT P6SM VCSH SCT010 OVC100
      TEMPO 2421/2501 4SM -SHRA SCT006 BKN010
     FM250100 26014G22KT P6SM BKN040 OVC100
     FM250700 27012G20KT P6SM BKN100 OVC250
     FM251400 28012KT P6SM FEW200=



000
FTUS42 KCAE 241900 AAA
TAFCUB
TAF AMD
KCUB 241915Z 2419/2518 19008G16KT P6SM VCSH SCT010 OVC100
      TEMPO 2419/2423 4SM -SHRA SCT006 BKN010
     FM250000 24012G20KT P6SM BKN040 OVC100
     FM250700 26012G18KT P6SM BKN100 OVC250
     FM251400 28010KT P6SM FEW200=



000
FTUS42 KCAE 241900 AAA
TAFCAE
TAF AMD
KCAE 241914Z 2419/2518 19010G20KT P6SM VCSH SCT010 OVC100
      TEMPO 2419/2423 4SM -SHRA SCT006 BKN010
     FM250000 24012G20KT P6SM BKN040 OVC100
     FM250700 26012G18KT P6SM BKN100 OVC250
     FM251400 28010KT P6SM FEW200=



000
FTUS42 KCAE 241700
TAFOGB
TAF
KOGB 241739Z 2418/2518 19010G20KT 6SM -SHRA BR SCT015 OVC100
      TEMPO 2418/2422 3SM SHRA BR SCT007 BKN015
     FM250100 26014G22KT P6SM BKN040 OVC100
     FM250700 27012G20KT P6SM BKN100 OVC250=



000
FTUS42 KCAE 241700
TAFCAE
TAF
KCAE 241739Z 2418/2518 19010G20KT 6SM -SHRA BR SCT015 OVC100
      TEMPO 2418/2422 3SM SHRA SCT006 BKN015
     FM250000 24012G22KT P6SM BKN040 OVC100
     FM250700 26012G20KT P6SM BKN100 OVC250=



000
FTUS42 KCAE 241700
TAFDNL
TAF
KDNL 241739Z 2418/2518 18010G20KT 3SM -SHRA BR BKN006
      TEMPO 2418/2419 1SM SHRA BR OVC004
     FM241900 20010G20KT P6SM VCSH BKN006
      TEMPO 2419/2421 4SM SHRA BR OVC007
     FM250000 26012G20KT P6SM BKN040 OVC100
     FM250600 28012G18KT P6SM BKN100 OVC250=



000
FTUS42 KCAE 241700
TAFAGS
TAF
KAGS 241739Z 2418/2518 18010G20KT 3SM -SHRA BR BKN006
     FM241900 20010G20KT P6SM VCSH BKN006
      TEMPO 2419/2421 4SM SHRA BR OVC007
     FM250000 26012G20KT P6SM BKN040 OVC100
     FM250600 28012G18KT P6SM BKN100 OVC250=



000
FTUS42 KCAE 241700
TAFCUB
TAF
KCUB 241739Z 2418/2518 19008G16KT 6SM -SHRA BR SCT015 OVC100
      TEMPO 2418/2421 3SM SHRA BR SCT006 BKN015
     FM250000 24010G18KT P6SM BKN040 OVC100
     FM250700 26010G15KT P6SM BKN100 OVC250=



000
FTUS42 KCAE 241600 AAB
TAFOGB
TAF AMD
KOGB 241631Z 2417/2512 26010G20KT 1SM SHRA BR SCT006 OVC015
     FM241800 26010G20KT 5SM -SHRA BR SCT006 OVC015
      TEMPO 2418/2422 2SM SHRA BR OVC007
     FM250100 26014G22KT P6SM BKN040 OVC100
     FM250700 27012G20KT P6SM BKN100 OVC250=



000
FTUS42 KCAE 241600 AAA
TAFCAE
TAF AMD
KCAE 241629Z 2416/2512 VRB05KT 1SM SHRA BR SCT006 OVC015
      WS020/19045KT
     FM241800 19010G20KT 5SM -SHRA BR SCT006 OVC015
      TEMPO 2418/2422 2SM SHRA BR OVC007
     FM250000 24012G22KT P6SM BKN040 OVC100
     FM250700 26012G20KT P6SM BKN100 OVC250=



000
FTUS42 KCAE 241400 AAA
TAFOGB
TAF AMD
KOGB 241447Z 2415/2512 20009KT 6SM -SHRA BR SCT007 OVC015
     FM241530 20010G20KT 2SM SHRA BR SCT006 OVC015
     FM241730 20010G20KT 5SM -SHRA BR SCT006 OVC015
      TEMPO 2418/2422 2SM SHRA BR OVC007
     FM250100 24014G22KT P6SM BKN040 OVC100
     FM250700 27012G20KT P6SM BKN100 OVC250=



000
FTUS42 KCAE 241400 AAA
TAFDNL
TAF AMD
KDNL 241447Z 2415/2512 20009KT 3SM -SHRA BR SCT007 BKN015 OVC060
      WS020/20045KT
     FM241700 20010G20KT 4SM -SHRA BR SCT007 BKN015 OVC040
      TEMPO 2417/2421 2SM SHRA BR OVC007
     FM250000 26012G20KT P6SM BKN040 OVC100
     FM250600 28012G18KT P6SM BKN100 OVC250=



000
FTUS42 KCAE 241400 AAA
TAFCAE
TAF AMD
KCAE 241447Z 2415/2512 VRB05KT 2SM SHRA BR SCT006 OVC015
      WS020/19045KT
     FM241630 19010G20KT 5SM -SHRA BR SCT006 OVC015
      TEMPO 2417/2421 2SM SHRA BR OVC007
     FM250000 24012G22KT P6SM BKN040 OVC100
     FM250700 26012G20KT P6SM BKN100 OVC250=



000
FTUS42 KCAE 241400 AAA
TAFCUB
TAF AMD
KCUB 241447Z 2415/2512 VRB05KT 2SM SHRA BR SCT006 OVC015
      WS020/19045KT
     FM241630 19008G16KT 5SM -SHRA BR SCT006 OVC015
      TEMPO 2417/2421 2SM SHRA BR OVC007
     FM250000 24010G18KT P6SM BKN040 OVC100
     FM250700 26010G15KT P6SM BKN100 OVC250=



000
FTUS42 KCAE 241400 AAA
TAFAGS
TAF AMD
KAGS 241447Z 2415/2512 20009KT 3SM -SHRA BR SCT007 BKN015 OVC060
      WS020/20045KT
     FM241700 20010G20KT 4SM -SHRA BR SCT007 BKN015 OVC040
      TEMPO 2417/2421 2SM SHRA BR OVC007
     FM250000 26012G20KT P6SM BKN040 OVC100
     FM250600 28012G18KT P6SM BKN100 OVC250=



000
FTUS42 KCAE 241100
TAFOGB
TAF
KOGB 241137Z 2412/2512 19010KT 6SM -SHRA BR SCT008 OVC015
      TEMPO 2412/2414 1SM +RA BKN008
     FM241400 20009KT 3SM -SHRA BR OVC005
     FM241600 20010G20KT 4SM -SHRA BR OVC015
      TEMPO 2419/2423 2SM SHRA BR OVC007
     FM250100 24014G22KT P6SM BKN040 OVC100
     FM250700 27012G20KT P6SM BKN100 OVC250=



000
FTUS42 KCAE 241100
TAFAGS
TAF
KAGS 241137Z 2412/2512 VRB03KT 4SM -SHRA BR SCT003 OVC035
      WS020/19045KT
      TEMPO 2412/2414 1SM +RA BKN003
     FM241400 20009KT 3SM -SHRA BR OVC005
     FM241600 20010G20KT 4SM -SHRA BR OVC015
      TEMPO 2417/2421 2SM SHRA BR OVC007
     FM250000 26012G20KT P6SM BKN040 OVC100
     FM250600 28012G18KT P6SM BKN100 OVC250=



000
FTUS42 KCAE 241100
TAFCAE
TAF
KCAE 241137Z 2412/2512 VRB05KT 3SM SHRA BR SCT020 OVC035
      WS020/19045KT
      TEMPO 2412/2414 1SM +RA OVC015
     FM241500 18009KT 3SM -SHRA BR OVC005
     FM241700 19010G20KT 4SM -SHRA BR OVC015
      TEMPO 2418/2422 2SM SHRA BR OVC007
     FM250000 24012G22KT P6SM BKN040 OVC100
     FM250700 26012G20KT P6SM BKN100 OVC250=



000
FTUS42 KCAE 241100
TAFCUB
TAF
KCUB 241137Z 2412/2512 VRB03KT 3SM SHRA BR SCT020 OVC035
      WS020/19045KT
      TEMPO 2412/2414 1SM +RA OVC015
     FM241500 18006KT 3SM -SHRA BR OVC005
     FM241700 19008G16KT 4SM -SHRA BR OVC015
      TEMPO 2418/2422 2SM SHRA BR OVC007
     FM250000 24010G18KT P6SM BKN040 OVC100
     FM250700 26010G15KT P6SM BKN100 OVC250=



000
FTUS42 KCAE 241100
TAFDNL
TAF
KDNL 241137Z 2412/2512 VRB04KT 4SM -SHRA BR SCT004 OVC025
      TEMPO 2412/2414 1SM +RA BKN004
     FM241400 20009KT 3SM -SHRA BR OVC005
     FM241600 20010G20KT 4SM -SHRA BR OVC015
      TEMPO 2417/2421 2SM SHRA BR OVC007
     FM250000 26012G20KT P6SM BKN040 OVC100
     FM250600 28012G18KT P6SM BKN100 OVC250=



000
FTUS42 KCAE 241000 AAB
TAFOGB
TAF AMD
KOGB 241058Z 2411/2506 18010KT 3SM SHRA BR SCT007 OVC015
     FM241500 20010G18KT 4SM -SHRA BR OVC015
      TEMPO 2416/2420 2SM SHRA BR OVC007
     FM250200 26014G22KT P6SM BKN040 OVC100=



000
FTUS42 KCAE 241000 AAA
TAFDNL
TAF AMD
KDNL 241056Z 2411/2506 VRB05KT 6SM -SHRA BR SCT005 OVC030
      WS020/18045KT
      TEMPO 2411/2414 2SM SHRA BR
     FM241400 17010KT 2SM SHRA BR OVC015
     FM241700 19012G20KT 4SM SHRA BR OVC015
     FM242200 21012G20KT 4SM -SHRA OVC015
     FM250100 26012G20KT P6SM BKN040 OVC100=



000
FTUS42 KCAE 241000 AAB
TAFAGS
TAF AMD
KAGS 241055Z 2411/2506 VRB05KT 6SM -SHRA BR OVC035 WS020/18045KT
      TEMPO 2411/2414 2SM SHRA BR
     FM241400 17010KT 2SM SHRA BR OVC015
     FM241700 19012G20KT 4SM SHRA BR OVC015
     FM242200 23012G20KT 4SM -SHRA OVC015
     FM250100 27012G20KT P6SM BKN040 OVC100=



000
FTUS42 KCAE 241000 AAB
TAFCUB
TAF AMD
KCUB 241052Z 2411/2506 VRB05KT 3SM RA BR SCT004 OVC025
      WS020/19045KT
      TEMPO 2411/2414 1SM +RA
     FM241400 18009KT 3SM SHRA BR OVC005
     FM241800 19010G18KT 4SM SHRA BR OVC015
     FM250200 26011G18KT P6SM BKN040 OVC100=



000
FTUS42 KCAE 241000 AAA
TAFCAE
TAF AMD
KCAE 241051Z 2411/2506 VRB05KT 3SM RA BR SCT004 OVC025
      WS020/19045KT
      TEMPO 2411/2414 1SM +RA
     FM241400 18010KT 3SM SHRA BR OVC005
     FM241800 19012G20KT 4SM SHRA BR OVC015
     FM250200 26014G21KT P6SM BKN040 OVC100=



000
FTUS42 KCAE 240800 AAA
TAFAGS
TAF AMD
KAGS 240836Z 2409/2506 13007KT 2SM RA BR SCT006 OVC012
      WS020/18045KT
      TEMPO 2409/2412 1SM +RA
     FM241200 17010KT 2SM SHRA BR BKN003 OVC015 WS020/20045KT
     FM241700 19012G20KT 4SM SHRA BR OVC008
     FM242100 23012G20KT 4SM SHRA OVC015
     FM250100 26012G20KT P6SM BKN040 OVC100=



000
FTUS42 KCAE 240800 AAA
TAFOGB
TAF AMD
KOGB 240834Z 2409/2506 14008KT 6SM -RA BR BKN005 OVC015
      WS020/18045KT
     FM241000 17010KT 3SM SHRA BR BKN007 OVC100 WS020/20045KT
     FM241700 20010G18KT 4SM SHRA BR OVC015
     FM250300 26014G22KT P6SM BKN040 OVC100=



000
FTUS42 KCAE 240800 AAA
TAFCAE
TAF AMD
KCAE 240833Z 2409/2506 10007KT 2SM RA BR SCT003 OVC012
      WS020/18045KT
      TEMPO 2409/2413 1SM +RA
     FM241300 17010KT 2SM RA BR OVC005 WS020/20045KT
     FM241800 20012G20KT 4SM SHRA BR OVC015
     FM250200 26014G21KT P6SM BKN040 OVC100=



000
FTUS42 KCAE 240800 AAA
TAFCUB
TAF AMD
KCUB 240831Z 2409/2506 VRB04KT 3SM RA BR SCT004 OVC015
      WS020/18045KT
      TEMPO 2409/2413 1SM +RA
     FM241300 17010KT 2SM RA BR OVC005 WS020/20045KT
     FM241800 20012KT 4SM SHRA BR OVC015
     FM250200 26012G20KT P6SM BKN040 OVC100=



000
FTUS42 KCAE 240500 RRA
TAFAGS
TAF
KAGS 240547Z 2406/2506 13007KT 2SM -RA BR OVC003 WS020/18045KT
      TEMPO 2406/2410 1/2SM FG
     FM241000 17010KT 2SM SHRA BR BKN003 OVC015 WS020/20045KT
     FM241700 19012G20KT 4SM SHRA BR OVC008
     FM242100 23012G20KT 4SM SHRA OVC015
     FM250100 26012G20KT P6SM BKN040 OVC100=



000
FTUS42 KCAE 240500 RRA
TAFDNL
TAF
KDNL 240547Z 2406/2506 10006KT 6SM -RA BR BKN004 OVC015
      WS020/18045KT
      TEMPO 2406/2410 1/2SM FG
     FM241000 17010KT 2SM SHRA BR OVC008
     FM241700 19012G20KT 4SM SHRA BR OVC015
     FM242100 22012G20KT 4SM SHRA OVC015
     FM250100 26012G20KT P6SM BKN040 OVC100=



000
FTUS42 KCAE 240500 RRA
TAFCUB
TAF
KCUB 240547Z 2406/2506 VRB04KT 3SM -RA BR OVC002 WS020/18045KT
      TEMPO 2406/2410 1SM BR VV002
     FM241200 17010KT 2SM RA BR OVC005 WS020/20045KT
     FM241800 20012KT 4SM SHRA BR OVC015
     FM250200 26012G20KT P6SM BKN040 OVC100=



000
FTUS42 KCAE 240500 RRA
TAFOGB
TAF
KOGB 240547Z 2406/2506 13008KT P6SM BKN003 OVC100 WS020/18045KT
     FM241000 17010KT 3SM SHRA BR BKN007 OVC100 WS020/20045KT
     FM241700 20010G18KT 4SM SHRA BR OVC015
     FM250300 26014G22KT P6SM BKN040 OVC100=



000
FTUS42 KCAE 240500 RRA
TAFCAE
TAF
KCAE 240547Z 2406/2506 10007KT 1SM -RA BR OVC003 WS020/18045KT
      TEMPO 2406/2410 1/2SM FG VV002
     FM241200 17010KT 2SM RA BR OVC005 WS020/20045KT
     FM241800 20012G20KT 4SM SHRA BR OVC015
     FM250200 26014G21KT P6SM BKN040 OVC100=



000
FTUS42 KCAE 240200 AAA
TAFCAE
TAF AMD
KCAE 240244Z 2403/2424 10007KT 2SM -RA BR OVC003 WS020/18044KT
     FM241200 17010KT 2SM RA BR OVC005
     FM242000 20012G20KT 4SM SHRA BR OVC015=



000
FTUS42 KCAE 240200 AAA
TAFCUB
TAF AMD
KCUB 240244Z 2403/2424 VRB04KT 3SM -RA BR OVC003 WS020/18044KT
      TEMPO 2406/2410 2SM BR
     FM241200 17010KT 2SM RA BR OVC005
     FM242000 20012KT 4SM SHRA BR OVC015=



000
FTUS42 KCAE 240200 AAA
TAFOGB
TAF AMD
KOGB 240244Z 2403/2424 VRB04KT 3SM -RA BR OVC003 WS020/18044KT
      TEMPO 2406/2410 2SM BR
     FM241200 17010KT 1 1/2SM RA BR OVC003
     FM242000 19012G20KT 4SM SHRA BR OVC015=



000
FTUS42 KCAE 240200 AAA
TAFAGS
TAF AMD
KAGS 240244Z 2403/2424 13007KT 3SM -RA BR OVC003 WS020/18044KT
      TEMPO 2406/2410 2SM BR
     FM241200 17010KT 1 1/2SM RA BR OVC005
     FM241800 19012G20KT 4SM SHRA BR OVC008
     FM242100 22012G20KT 4SM SHRA OVC015=



000
FTUS42 KCAE 240200 AAA
TAFDNL
TAF AMD
KDNL 240244Z 2403/2424 10006KT 2SM -RA BR OVC003 WS020/18044KT
      TEMPO 2403/2407 1/2SM FG
     FM241200 17010KT 1 1/2SM RA BR OVC005
     FM241800 19012G20KT 4SM SHRA BR OVC008
     FM242100 22012G20KT 4SM SHRA OVC015=



000
FTUS42 KCAE 232300
TAFDNL
TAF
KDNL 232331Z 2400/2424 03006KT 3SM RA BR OVC006
     FM240300 VRB05KT 2SM -RA BR OVC003
     FM241200 17010KT 1 1/2SM RA BR OVC005
     FM241800 19012G20KT 4SM SHRA BR OVC008
     FM242100 22012G20KT 4SM SHRA OVC015=



000
FTUS42 KCAE 232300
TAFCUB
TAF
KCUB 232331Z 2400/2424 03005KT 3SM RA BR OVC005
     FM240300 VRB04KT 2SM -RA BR OVC003
     FM241200 17010KT 2SM RA BR OVC005
     FM242000 20012KT 4SM SHRA BR OVC015=



000
FTUS42 KCAE 232300
TAFCAE
TAF
KCAE 232331Z 2400/2424 03006KT 3SM RA BR OVC005
     FM240300 VRB04KT 2SM -RA BR OVC003
     FM241200 17010KT 2SM RA BR OVC005
     FM242000 20012G20KT 4SM SHRA BR OVC015=



000
FTUS42 KCAE 232300
TAFAGS
TAF
KAGS 232331Z 2400/2424 VRB05KT 3SM RA BR OVC006
     FM240300 VRB04KT 2SM -RA BR OVC003
     FM241200 17010KT 1 1/2SM RA BR OVC005
     FM241800 19012G20KT 4SM SHRA BR OVC008
     FM242100 22012G20KT 4SM SHRA OVC015=



000
FTUS42 KCAE 232300
TAFOGB
TAF
KOGB 232331Z 2400/2424 09006KT 3SM RA BR OVC005
     FM240300 VRB04KT 2SM -RA BR OVC003
     FM241200 17010KT 1 1/2SM RA BR OVC003
     FM242000 19012G20KT 4SM SHRA BR OVC015=



000
FTUS42 KCAE 232000 AAA
TAFDNL
TAF AMD
KDNL 232034Z 2321/2418 03006KT 4SM RA BR OVC003
     FM240300 VRB05KT 1SM RA BR OVC003
     FM241200 17010KT 1 1/2SM RA BR OVC003=



000
FTUS42 KCAE 232000 AAA
TAFCAE
TAF AMD
KCAE 232033Z 2321/2418 03006KT 3SM RA BR OVC004
     FM240300 VRB04KT 1SM RA BR OVC003
     FM241200 17010KT 1 1/2SM RA BR OVC003=



000
FTUS42 KCAE 232000 AAA
TAFCUB
TAF AMD
KCUB 232033Z 2321/2418 03005KT 4SM RA BR OVC004
     FM240300 VRB04KT 1SM RA BR OVC003
     FM241200 17010KT 1 1/2SM RA BR OVC003=



000
FTUS42 KCAE 232000 AAA
TAFOGB
TAF AMD
KOGB 232032Z 2321/2418 09006KT 3SM RA BR OVC005
     FM240300 VRB04KT 2SM RA BR OVC003
     FM241200 17010KT 1 1/2SM RA BR OVC003=



000
FTUS42 KCAE 232000 AAA
TAFAGS
TAF AMD
KAGS 232031Z 2321/2418 09006KT 2SM RA BR OVC005
     FM240000 VRB05KT 2SM RA BR OVC003
     FM241200 17010KT 1 1/2SM RA BR OVC003=



000
FTUS42 KCAE 231700
TAFCAE
TAF
KCAE 231727Z 2318/2418 08006KT 1SM RA BR OVC003
     FM240300 VRB04KT 1SM RA BR OVC003
     FM241200 17010KT 1 1/2SM RA BR OVC003=



000
FTUS42 KCAE 231700
TAFCUB
TAF
KCUB 231727Z 2318/2418 08005KT 1SM RA BR OVC003
     FM240300 VRB04KT 1SM RA BR OVC003
     FM241200 17010KT 1 1/2SM RA BR OVC003=



000
FTUS42 KCAE 231700
TAFOGB
TAF
KOGB 231727Z 2318/2418 09006KT 1SM RA BR OVC003
     FM240300 VRB04KT 1SM RA BR OVC003
     FM241200 17010KT 1 1/2SM RA BR OVC003=



000
FTUS42 KCAE 231700
TAFDNL
TAF
KDNL 231727Z 2318/2418 09006KT 1/2SM RA FG OVC003
     FM232200 VRB05KT 1SM RA BR OVC003
     FM241200 17010KT 1 1/2SM RA BR OVC003=



000
FTUS42 KCAE 231700
TAFAGS
TAF
KAGS 231727Z 2318/2418 09006KT 1/2SM RA FG OVC003
     FM232200 VRB05KT 1SM RA BR OVC003
     FM241200 17010KT 1 1/2SM RA BR OVC003=



000
FTUS42 KCAE 231400 AAA
TAFAGS
TAF AMD
KAGS 231427Z 2314/2412 06006KT 1SM -DZ BR OVC002
      TEMPO 2314/2316 3/4SM BR
     FM231700 07005KT 1 1/2SM RA BR OVC004
     FM240300 12004KT 1 1/2SM RA BR OVC003=



000
FTUS42 KCAE 231400 AAA
TAFDNL
TAF AMD
KDNL 231427Z 2314/2412 06005KT 1SM -DZ BR OVC002
      TEMPO 2314/2316 3/4SM BR
     FM231700 07005KT 1 1/2SM RA BR OVC004
     FM240300 12004KT 1 1/2SM RA BR OVC003=



000
FTUS42 KCAE 231400 AAA
TAFOGB
TAF AMD
KOGB 231427Z 2314/2412 04005KT 1SM -DZ BR OVC002
      TEMPO 2314/2316 3/4SM BR
     FM231800 07005KT 1 1/2SM RA BR OVC003
     FM240300 12004KT 1 1/2SM RA BR OVC003=



000
FTUS42 KCAE 231400 AAA
TAFCUB
TAF AMD
KCUB 231427Z 2314/2412 04005KT 1 1/2SM -DZ BR OVC003
     FM231800 07004KT 1 1/2SM RA BR OVC004
     FM240300 11004KT 2SM RA BR OVC003=



000
FTUS42 KCAE 231400 AAA
TAFCAE
TAF AMD
KCAE 231427Z 2314/2412 04005KT 1 1/2SM -DZ BR OVC003
     FM231800 07005KT 1 1/2SM RA BR OVC004
     FM240300 11004KT 2SM RA BR OVC003=



    US Dept of Commerce
    National Oceanic and Atmospheric Administration
    National Weather Service
    1325 East West Highway
    Silver Spring, MD 20910
    Page Author: NWS Internet Services Team
Disclaimer
Information Quality
Credits
Glossary
Privacy Policy
Freedom of Information Act (FOIA)
About Us
Career Opportunities